sensor_id;sensor_type;location;lat;lon;timestamp;temperature;humidity
11848;DHT22;5983;49.966;8.052;2024-03-02T00:01:14;3.40;99.90
11848;DHT22;5983;49.966;8.052;2024-03-02T00:03:43;3.40;99.90
11848;DHT22;5983;49.966;8.052;2024-03-02T00:06:10;3.40;99.90
11848;DHT22;5983;49.966;8.052;2024-03-02T00:08:37;3.50;99.90
11848;DHT22;5983;49.966;8.052;2024-03-02T00:11:04;3.50;99.90
11848;DHT22;5983;49.966;8.052;2024-03-02T00:13:31;3.50;99.90
11848;DHT22;5983;49.966;8.052;2024-03-02T00:15:59;3.50;99.90
11848;DHT22;5983;49.966;8.052;2024-03-02T00:18:26;3.50;99.90
11848;DHT22;5983;49.966;8.052;2024-03-02T00:20:57;3.50;99.90
11848;DHT22;5983;49.966;8.052;2024-03-02T00:23:27;3.50;99.90
11848;DHT22;5983;49.966;8.052;2024-03-02T00:25:55;3.50;99.90
11848;DHT22;5983;49.966;8.052;2024-03-02T00:28:23;3.50;99.90
11848;DHT22;5983;49.966;8.052;2024-03-02T00:30:54;3.50;99.90
11848;DHT22;5983;49.966;8.052;2024-03-02T00:33:22;3.50;99.90
11848;DHT22;5983;49.966;8.052;2024-03-02T00:35:50;3.50;99.90
11848;DHT22;5983;49.966;8.052;2024-03-02T00:38:18;3.50;99.90
11848;DHT22;5983;49.966;8.052;2024-03-02T00:40:46;3.50;99.90
11848;DHT22;5983;49.966;8.052;2024-03-02T00:43:19;3.60;99.90
11848;DHT22;5983;49.966;8.052;2024-03-02T00:46:05;3.60;99.90
11848;DHT22;5983;49.966;8.052;2024-03-02T00:48:34;3.60;99.90
11848;DHT22;5983;49.966;8.052;2024-03-02T00:51:02;3.60;99.90
11848;DHT22;5983;49.966;8.052;2024-03-02T00:53:31;3.70;99.90
11848;DHT22;5983;49.966;8.052;2024-03-02T00:55:58;3.70;99.90
11848;DHT22;5983;49.966;8.052;2024-03-02T00:58:26;3.80;99.90
11848;DHT22;5983;49.966;8.052;2024-03-02T01:00:52;3.80;99.90
11848;DHT22;5983;49.966;8.052;2024-03-02T01:03:19;3.80;99.90
11848;DHT22;5983;49.966;8.052;2024-03-02T01:05:46;3.80;99.90
11848;DHT22;5983;49.966;8.052;2024-03-02T01:08:13;3.80;99.90
11848;DHT22;5983;49.966;8.052;2024-03-02T01:10:41;3.80;99.90
11848;DHT22;5983;49.966;8.052;2024-03-02T01:13:08;3.80;99.90
11848;DHT22;5983;49.966;8.052;2024-03-02T01:15:35;3.80;99.90
11848;DHT22;5983;49.966;8.052;2024-03-02T01:18:02;3.80;99.90
11848;DHT22;5983;49.966;8.052;2024-03-02T01:20:29;3.80;99.90
11848;DHT22;5983;49.966;8.052;2024-03-02T01:22:56;3.90;99.90
11848;DHT22;5983;49.966;8.052;2024-03-02T01:25:23;3.90;99.90
11848;DHT22;5983;49.966;8.052;2024-03-02T01:27:51;3.90;99.90
11848;DHT22;5983;49.966;8.052;2024-03-02T01:30:18;3.90;99.90
11848;DHT22;5983;49.966;8.052;2024-03-02T01:32:45;3.90;99.90
11848;DHT22;5983;49.966;8.052;2024-03-02T01:35:12;3.90;99.90
11848;DHT22;5983;49.966;8.052;2024-03-02T01:37:40;3.90;99.90
11848;DHT22;5983;49.966;8.052;2024-03-02T01:40:07;3.90;99.90
11848;DHT22;5983;49.966;8.052;2024-03-02T01:42:35;3.90;99.90
11848;DHT22;5983;49.966;8.052;2024-03-02T01:45:05;3.90;99.90
11848;DHT22;5983;49.966;8.052;2024-03-02T01:47:32;3.90;99.90
11848;DHT22;5983;49.966;8.052;2024-03-02T01:49:59;3.80;99.90
11848;DHT22;5983;49.966;8.052;2024-03-02T01:52:26;3.80;99.90
11848;DHT22;5983;49.966;8.052;2024-03-02T01:54:53;3.80;99.90
11848;DHT22;5983;49.966;8.052;2024-03-02T01:57:20;3.70;99.90
11848;DHT22;5983;49.966;8.052;2024-03-02T01:59:47;3.70;99.90
11848;DHT22;5983;49.966;8.052;2024-03-02T02:02:17;3.70;99.90
11848;DHT22;5983;49.966;8.052;2024-03-02T02:04:44;3.70;99.90
11848;DHT22;5983;49.966;8.052;2024-03-02T02:07:11;3.60;99.90
11848;DHT22;5983;49.966;8.052;2024-03-02T02:09:39;3.60;99.90
11848;DHT22;5983;49.966;8.052;2024-03-02T02:12:07;3.50;99.90
11848;DHT22;5983;49.966;8.052;2024-03-02T02:14:34;3.50;99.90
11848;DHT22;5983;49.966;8.052;2024-03-02T02:17:01;3.50;99.90
11848;DHT22;5983;49.966;8.052;2024-03-02T02:19:30;3.50;99.90
11848;DHT22;5983;49.966;8.052;2024-03-02T02:21:58;3.50;99.90
11848;DHT22;5983;49.966;8.052;2024-03-02T02:24:25;3.50;99.90
11848;DHT22;5983;49.966;8.052;2024-03-02T02:26:52;3.50;99.90
11848;DHT22;5983;49.966;8.052;2024-03-02T02:29:19;3.50;99.90
11848;DHT22;5983;49.966;8.052;2024-03-02T02:31:45;3.40;99.90
11848;DHT22;5983;49.966;8.052;2024-03-02T02:34:13;3.40;99.90
11848;DHT22;5983;49.966;8.052;2024-03-02T02:36:40;3.30;99.90
11848;DHT22;5983;49.966;8.052;2024-03-02T02:39:11;3.30;99.90
11848;DHT22;5983;49.966;8.052;2024-03-02T02:41:41;3.30;99.90
11848;DHT22;5983;49.966;8.052;2024-03-02T02:44:08;3.30;99.90
11848;DHT22;5983;49.966;8.052;2024-03-02T02:46:36;3.30;99.90
11848;DHT22;5983;49.966;8.052;2024-03-02T02:49:04;3.20;99.90
11848;DHT22;5983;49.966;8.052;2024-03-02T02:51:31;3.20;99.90
11848;DHT22;5983;49.966;8.052;2024-03-02T02:53:58;3.20;99.90
11848;DHT22;5983;49.966;8.052;2024-03-02T02:56:26;3.20;99.90
11848;DHT22;5983;49.966;8.052;2024-03-02T02:58:53;3.10;99.90
11848;DHT22;5983;49.966;8.052;2024-03-02T03:01:20;3.10;99.90
11848;DHT22;5983;49.966;8.052;2024-03-02T03:03:47;3.10;99.90
11848;DHT22;5983;49.966;8.052;2024-03-02T03:06:14;3.10;99.90
11848;DHT22;5983;49.966;8.052;2024-03-02T03:08:40;3.10;99.90
11848;DHT22;5983;49.966;8.052;2024-03-02T03:11:07;3.10;99.90
11848;DHT22;5983;49.966;8.052;2024-03-02T03:13:36;3.10;99.90
11848;DHT22;5983;49.966;8.052;2024-03-02T03:16:03;3.10;99.90
11848;DHT22;5983;49.966;8.052;2024-03-02T03:18:30;3.10;99.90
11848;DHT22;5983;49.966;8.052;2024-03-02T03:20:57;3.00;99.90
11848;DHT22;5983;49.966;8.052;2024-03-02T03:23:24;3.00;99.90
11848;DHT22;5983;49.966;8.052;2024-03-02T03:25:51;3.00;99.90
11848;DHT22;5983;49.966;8.052;2024-03-02T03:28:18;3.00;99.90
11848;DHT22;5983;49.966;8.052;2024-03-02T03:30:47;2.90;99.90
11848;DHT22;5983;49.966;8.052;2024-03-02T03:33:13;2.90;99.90
11848;DHT22;5983;49.966;8.052;2024-03-02T03:35:40;2.90;99.90
11848;DHT22;5983;49.966;8.052;2024-03-02T03:38:07;3.00;99.90
11848;DHT22;5983;49.966;8.052;2024-03-02T03:40:34;2.90;99.90
11848;DHT22;5983;49.966;8.052;2024-03-02T03:43:01;2.90;99.90
11848;DHT22;5983;49.966;8.052;2024-03-02T03:45:34;2.90;99.90
11848;DHT22;5983;49.966;8.052;2024-03-02T03:48:02;2.90;99.90
11848;DHT22;5983;49.966;8.052;2024-03-02T03:50:31;2.90;99.90
11848;DHT22;5983;49.966;8.052;2024-03-02T03:52:58;2.90;99.90
11848;DHT22;5983;49.966;8.052;2024-03-02T03:55:25;2.80;99.90
11848;DHT22;5983;49.966;8.052;2024-03-02T03:57:52;2.80;99.90
11848;DHT22;5983;49.966;8.052;2024-03-02T04:00:19;2.90;99.90
11848;DHT22;5983;49.966;8.052;2024-03-02T04:02:46;2.90;99.90
11848;DHT22;5983;49.966;8.052;2024-03-02T04:05:14;2.90;99.90
11848;DHT22;5983;49.966;8.052;2024-03-02T04:07:41;2.90;99.90
11848;DHT22;5983;49.966;8.052;2024-03-02T04:10:08;2.90;99.90
11848;DHT22;5983;49.966;8.052;2024-03-02T04:12:37;2.90;99.90
11848;DHT22;5983;49.966;8.052;2024-03-02T04:15:04;2.90;99.90
11848;DHT22;5983;49.966;8.052;2024-03-02T04:17:32;2.90;99.90
11848;DHT22;5983;49.966;8.052;2024-03-02T04:20:01;2.90;99.90
11848;DHT22;5983;49.966;8.052;2024-03-02T04:22:32;2.90;99.90
11848;DHT22;5983;49.966;8.052;2024-03-02T04:24:59;2.90;99.90
11848;DHT22;5983;49.966;8.052;2024-03-02T04:27:27;2.90;99.90
11848;DHT22;5983;49.966;8.052;2024-03-02T04:29:53;2.90;99.90
11848;DHT22;5983;49.966;8.052;2024-03-02T04:32:20;2.90;99.90
11848;DHT22;5983;49.966;8.052;2024-03-02T04:34:47;2.80;99.90
11848;DHT22;5983;49.966;8.052;2024-03-02T04:37:16;2.80;99.90
11848;DHT22;5983;49.966;8.052;2024-03-02T04:39:44;2.80;99.90
11848;DHT22;5983;49.966;8.052;2024-03-02T04:42:11;2.70;99.90
11848;DHT22;5983;49.966;8.052;2024-03-02T04:44:39;2.70;99.90
11848;DHT22;5983;49.966;8.052;2024-03-02T04:47:06;2.60;99.90
11848;DHT22;5983;49.966;8.052;2024-03-02T04:49:33;2.60;99.90
11848;DHT22;5983;49.966;8.052;2024-03-02T04:52:00;2.60;99.90
11848;DHT22;5983;49.966;8.052;2024-03-02T04:54:27;2.60;99.90
11848;DHT22;5983;49.966;8.052;2024-03-02T04:56:55;2.60;99.90
11848;DHT22;5983;49.966;8.052;2024-03-02T04:59:24;2.60;99.90
11848;DHT22;5983;49.966;8.052;2024-03-02T05:01:51;2.60;99.90
11848;DHT22;5983;49.966;8.052;2024-03-02T05:04:18;2.60;99.90
11848;DHT22;5983;49.966;8.052;2024-03-02T05:06:46;2.60;99.90
11848;DHT22;5983;49.966;8.052;2024-03-02T05:09:17;2.60;99.90
11848;DHT22;5983;49.966;8.052;2024-03-02T05:11:46;2.60;99.90
11848;DHT22;5983;49.966;8.052;2024-03-02T05:14:37;2.70;99.90
11848;DHT22;5983;49.966;8.052;2024-03-02T05:17:08;2.80;99.90
11848;DHT22;5983;49.966;8.052;2024-03-02T05:19:35;2.80;99.90
11848;DHT22;5983;49.966;8.052;2024-03-02T05:22:02;2.90;99.90
11848;DHT22;5983;49.966;8.052;2024-03-02T05:24:31;3.00;99.90
11848;DHT22;5983;49.966;8.052;2024-03-02T05:26:59;3.00;99.90
11848;DHT22;5983;49.966;8.052;2024-03-02T05:29:26;3.00;99.90
11848;DHT22;5983;49.966;8.052;2024-03-02T05:31:54;3.10;99.90
11848;DHT22;5983;49.966;8.052;2024-03-02T05:34:21;3.10;99.90
11848;DHT22;5983;49.966;8.052;2024-03-02T05:36:48;3.10;99.90
11848;DHT22;5983;49.966;8.052;2024-03-02T05:39:15;3.10;99.90
11848;DHT22;5983;49.966;8.052;2024-03-02T05:41:42;3.20;99.90
11848;DHT22;5983;49.966;8.052;2024-03-02T05:44:09;3.30;99.90
11848;DHT22;5983;49.966;8.052;2024-03-02T05:46:38;3.30;99.90
11848;DHT22;5983;49.966;8.052;2024-03-02T05:49:06;3.40;99.90
11848;DHT22;5983;49.966;8.052;2024-03-02T05:51:35;3.40;99.90
11848;DHT22;5983;49.966;8.052;2024-03-02T05:54:02;3.40;99.90
11848;DHT22;5983;49.966;8.052;2024-03-02T05:56:29;3.40;99.90
11848;DHT22;5983;49.966;8.052;2024-03-02T05:58:56;3.50;99.90
11848;DHT22;5983;49.966;8.052;2024-03-02T06:01:33;3.50;99.90
11848;DHT22;5983;49.966;8.052;2024-03-02T06:04:08;3.50;99.90
11848;DHT22;5983;49.966;8.052;2024-03-02T06:06:36;3.50;99.90
11848;DHT22;5983;49.966;8.052;2024-03-02T06:09:04;3.50;99.90
11848;DHT22;5983;49.966;8.052;2024-03-02T06:11:35;3.60;99.90
11848;DHT22;5983;49.966;8.052;2024-03-02T06:14:02;3.60;99.90
11848;DHT22;5983;49.966;8.052;2024-03-02T06:16:30;3.60;99.90
11848;DHT22;5983;49.966;8.052;2024-03-02T06:18:59;3.60;99.90
11848;DHT22;5983;49.966;8.052;2024-03-02T06:21:27;3.60;99.90
11848;DHT22;5983;49.966;8.052;2024-03-02T06:23:54;3.70;99.90
11848;DHT22;5983;49.966;8.052;2024-03-02T06:26:22;3.70;99.90
11848;DHT22;5983;49.966;8.052;2024-03-02T06:28:54;3.70;99.90
11848;DHT22;5983;49.966;8.052;2024-03-02T06:31:21;3.80;99.90
11848;DHT22;5983;49.966;8.052;2024-03-02T06:33:48;3.80;99.90
11848;DHT22;5983;49.966;8.052;2024-03-02T06:36:17;3.80;99.90
11848;DHT22;5983;49.966;8.052;2024-03-02T06:38:46;3.90;99.90
11848;DHT22;5983;49.966;8.052;2024-03-02T06:41:15;3.90;99.90
11848;DHT22;5983;49.966;8.052;2024-03-02T06:43:42;3.90;99.90
11848;DHT22;5983;49.966;8.052;2024-03-02T06:46:11;3.90;99.90
11848;DHT22;5983;49.966;8.052;2024-03-02T06:48:40;3.90;99.90
11848;DHT22;5983;49.966;8.052;2024-03-02T06:51:06;3.90;99.90
11848;DHT22;5983;49.966;8.052;2024-03-02T06:53:33;4.00;99.90
11848;DHT22;5983;49.966;8.052;2024-03-02T06:56:03;4.00;99.90
11848;DHT22;5983;49.966;8.052;2024-03-02T06:58:31;4.00;99.90
11848;DHT22;5983;49.966;8.052;2024-03-02T07:00:58;4.10;99.90
11848;DHT22;5983;49.966;8.052;2024-03-02T07:03:25;4.10;99.90
11848;DHT22;5983;49.966;8.052;2024-03-02T07:05:52;4.20;99.90
11848;DHT22;5983;49.966;8.052;2024-03-02T07:08:19;4.20;99.90
11848;DHT22;5983;49.966;8.052;2024-03-02T07:10:46;4.20;99.90
11848;DHT22;5983;49.966;8.052;2024-03-02T07:13:16;4.30;99.90
11848;DHT22;5983;49.966;8.052;2024-03-02T07:15:42;4.30;99.90
11848;DHT22;5983;49.966;8.052;2024-03-02T07:18:31;4.40;99.90
11848;DHT22;5983;49.966;8.052;2024-03-02T07:20:58;4.50;99.90
11848;DHT22;5983;49.966;8.052;2024-03-02T07:23:26;4.60;99.90
11848;DHT22;5983;49.966;8.052;2024-03-02T07:25:53;4.70;99.90
11848;DHT22;5983;49.966;8.052;2024-03-02T07:28:23;4.80;99.90
11848;DHT22;5983;49.966;8.052;2024-03-02T07:30:57;4.80;99.90
11848;DHT22;5983;49.966;8.052;2024-03-02T07:33:25;4.90;99.90
11848;DHT22;5983;49.966;8.052;2024-03-02T07:35:52;5.00;99.90
11848;DHT22;5983;49.966;8.052;2024-03-02T07:38:20;5.00;99.90
11848;DHT22;5983;49.966;8.052;2024-03-02T07:40:47;5.10;99.90
11848;DHT22;5983;49.966;8.052;2024-03-02T07:43:15;5.20;99.90
11848;DHT22;5983;49.966;8.052;2024-03-02T07:45:44;5.30;99.90
11848;DHT22;5983;49.966;8.052;2024-03-02T07:50:47;5.50;99.90
11848;DHT22;5983;49.966;8.052;2024-03-02T07:53:13;5.60;99.90
11848;DHT22;5983;49.966;8.052;2024-03-02T07:55:40;5.70;99.90
11848;DHT22;5983;49.966;8.052;2024-03-02T07:58:07;5.80;99.90
11848;DHT22;5983;49.966;8.052;2024-03-02T08:00:38;6.00;99.90
11848;DHT22;5983;49.966;8.052;2024-03-02T08:03:06;6.10;99.90
11848;DHT22;5983;49.966;8.052;2024-03-02T08:05:36;6.30;99.90
11848;DHT22;5983;49.966;8.052;2024-03-02T08:08:04;6.60;99.90
11848;DHT22;5983;49.966;8.052;2024-03-02T08:10:31;6.80;99.90
11848;DHT22;5983;49.966;8.052;2024-03-02T08:12:59;7.00;99.90
11848;DHT22;5983;49.966;8.052;2024-03-02T08:15:25;7.30;99.90
11848;DHT22;5983;49.966;8.052;2024-03-02T08:17:52;7.80;99.90
11848;DHT22;5983;49.966;8.052;2024-03-02T08:20:20;9.20;99.90
11848;DHT22;5983;49.966;8.052;2024-03-02T08:22:47;10.90;99.90
11848;DHT22;5983;49.966;8.052;2024-03-02T08:25:14;12.10;99.90
11848;DHT22;5983;49.966;8.052;2024-03-02T08:27:42;13.30;99.90
11848;DHT22;5983;49.966;8.052;2024-03-02T08:30:09;14.10;99.90
11848;DHT22;5983;49.966;8.052;2024-03-02T08:32:37;14.00;99.90
11848;DHT22;5983;49.966;8.052;2024-03-02T08:35:04;13.50;99.90
11848;DHT22;5983;49.966;8.052;2024-03-02T08:37:34;13.00;99.90
11848;DHT22;5983;49.966;8.052;2024-03-02T08:40:00;12.60;99.90
11848;DHT22;5983;49.966;8.052;2024-03-02T08:42:29;12.70;99.90
11848;DHT22;5983;49.966;8.052;2024-03-02T08:44:56;13.00;99.90
11848;DHT22;5983;49.966;8.052;2024-03-02T08:47:22;13.00;99.90
11848;DHT22;5983;49.966;8.052;2024-03-02T08:49:49;12.90;99.90
11848;DHT22;5983;49.966;8.052;2024-03-02T08:52:16;12.50;99.90
11848;DHT22;5983;49.966;8.052;2024-03-02T08:54:44;12.10;99.90
11848;DHT22;5983;49.966;8.052;2024-03-02T08:57:11;11.60;99.90
11848;DHT22;5983;49.966;8.052;2024-03-02T08:59:38;11.30;99.90
11848;DHT22;5983;49.966;8.052;2024-03-02T09:02:05;11.00;99.90
11848;DHT22;5983;49.966;8.052;2024-03-02T09:04:32;10.80;99.90
11848;DHT22;5983;49.966;8.052;2024-03-02T09:06:59;10.50;99.90
11848;DHT22;5983;49.966;8.052;2024-03-02T09:09:26;10.30;99.90
11848;DHT22;5983;49.966;8.052;2024-03-02T09:11:54;10.10;99.90
11848;DHT22;5983;49.966;8.052;2024-03-02T09:14:23;10.00;99.90
11848;DHT22;5983;49.966;8.052;2024-03-02T09:16:50;9.90;99.90
11848;DHT22;5983;49.966;8.052;2024-03-02T09:19:16;9.90;99.90
11848;DHT22;5983;49.966;8.052;2024-03-02T09:21:44;9.80;99.90
11848;DHT22;5983;49.966;8.052;2024-03-02T09:24:10;9.80;99.90
11848;DHT22;5983;49.966;8.052;2024-03-02T09:26:38;9.80;99.90
11848;DHT22;5983;49.966;8.052;2024-03-02T09:29:06;10.00;99.90
11848;DHT22;5983;49.966;8.052;2024-03-02T09:31:33;10.10;99.90
11848;DHT22;5983;49.966;8.052;2024-03-02T09:33:59;10.20;99.90
11848;DHT22;5983;49.966;8.052;2024-03-02T09:36:26;10.30;99.90
11848;DHT22;5983;49.966;8.052;2024-03-02T09:38:53;10.50;99.90
11848;DHT22;5983;49.966;8.052;2024-03-02T09:41:20;10.90;99.90
11848;DHT22;5983;49.966;8.052;2024-03-02T09:43:47;11.30;99.90
11848;DHT22;5983;49.966;8.052;2024-03-02T09:46:15;11.50;99.90
11848;DHT22;5983;49.966;8.052;2024-03-02T09:48:43;11.90;99.90
11848;DHT22;5983;49.966;8.052;2024-03-02T09:51:10;12.40;99.90
11848;DHT22;5983;49.966;8.052;2024-03-02T09:53:38;13.20;99.90
11848;DHT22;5983;49.966;8.052;2024-03-02T09:56:05;14.20;99.90
11848;DHT22;5983;49.966;8.052;2024-03-02T09:58:32;15.00;99.90
11848;DHT22;5983;49.966;8.052;2024-03-02T10:00:59;16.70;99.90
11848;DHT22;5983;49.966;8.052;2024-03-02T10:03:27;18.50;99.90
11848;DHT22;5983;49.966;8.052;2024-03-02T10:06:09;19.50;99.90
11848;DHT22;5983;49.966;8.052;2024-03-02T10:08:45;19.60;99.90
11848;DHT22;5983;49.966;8.052;2024-03-02T10:11:17;19.00;99.90
11848;DHT22;5983;49.966;8.052;2024-03-02T10:13:57;18.60;99.90
11848;DHT22;5983;49.966;8.052;2024-03-02T10:16:32;18.10;99.90
11848;DHT22;5983;49.966;8.052;2024-03-02T10:19:03;17.50;99.90
11848;DHT22;5983;49.966;8.052;2024-03-02T10:21:44;17.10;99.90
11848;DHT22;5983;49.966;8.052;2024-03-02T10:24:12;16.80;99.90
11848;DHT22;5983;49.966;8.052;2024-03-02T10:26:39;16.50;99.90
11848;DHT22;5983;49.966;8.052;2024-03-02T10:29:07;16.40;99.90
11848;DHT22;5983;49.966;8.052;2024-03-02T10:31:36;16.10;99.90
11848;DHT22;5983;49.966;8.052;2024-03-02T10:34:05;15.60;99.90
11848;DHT22;5983;49.966;8.052;2024-03-02T10:36:32;15.00;99.90
11848;DHT22;5983;49.966;8.052;2024-03-02T10:39:01;14.30;99.90
11848;DHT22;5983;49.966;8.052;2024-03-02T10:41:29;13.70;99.90
11848;DHT22;5983;49.966;8.052;2024-03-02T10:43:59;13.20;99.90
11848;DHT22;5983;49.966;8.052;2024-03-02T10:46:26;12.70;99.90
11848;DHT22;5983;49.966;8.052;2024-03-02T10:48:54;12.20;99.90
11848;DHT22;5983;49.966;8.052;2024-03-02T10:51:25;11.90;99.90
11848;DHT22;5983;49.966;8.052;2024-03-02T10:53:54;11.70;99.90
11848;DHT22;5983;49.966;8.052;2024-03-02T10:56:21;11.60;99.90
11848;DHT22;5983;49.966;8.052;2024-03-02T10:58:54;11.50;99.90
11848;DHT22;5983;49.966;8.052;2024-03-02T11:01:28;11.40;99.90
11848;DHT22;5983;49.966;8.052;2024-03-02T11:03:56;11.40;99.90
11848;DHT22;5983;49.966;8.052;2024-03-02T11:06:27;11.50;99.90
11848;DHT22;5983;49.966;8.052;2024-03-02T11:09:00;11.60;99.90
11848;DHT22;5983;49.966;8.052;2024-03-02T11:11:32;11.70;99.90
11848;DHT22;5983;49.966;8.052;2024-03-02T11:14:04;11.80;99.90
11848;DHT22;5983;49.966;8.052;2024-03-02T11:16:35;11.90;99.90
11848;DHT22;5983;49.966;8.052;2024-03-02T11:19:04;12.00;99.90
11848;DHT22;5983;49.966;8.052;2024-03-02T11:21:34;12.30;99.90
11848;DHT22;5983;49.966;8.052;2024-03-02T11:24:15;12.70;99.90
11848;DHT22;5983;49.966;8.052;2024-03-02T11:26:58;13.10;99.90
11848;DHT22;5983;49.966;8.052;2024-03-02T11:32:14;14.30;99.90
11848;DHT22;5983;49.966;8.052;2024-03-02T11:34:43;15.70;99.90
11848;DHT22;5983;49.966;8.052;2024-03-02T11:37:14;18.00;99.90
11848;DHT22;5983;49.966;8.052;2024-03-02T11:39:42;20.90;99.90
11848;DHT22;5983;49.966;8.052;2024-03-02T11:42:11;24.00;94.30
11848;DHT22;5983;49.966;8.052;2024-03-02T11:44:39;26.60;76.70
11848;DHT22;5983;49.966;8.052;2024-03-02T11:47:08;28.50;61.60
11848;DHT22;5983;49.966;8.052;2024-03-02T11:49:40;30.10;53.80
11848;DHT22;5983;49.966;8.052;2024-03-02T11:52:08;31.30;48.60
11848;DHT22;5983;49.966;8.052;2024-03-02T11:54:38;32.30;45.40
11848;DHT22;5983;49.966;8.052;2024-03-02T11:57:07;33.10;42.50
11848;DHT22;5983;49.966;8.052;2024-03-02T11:59:34;33.70;40.60
11848;DHT22;5983;49.966;8.052;2024-03-02T12:02:01;34.30;38.00
11848;DHT22;5983;49.966;8.052;2024-03-02T12:04:29;34.70;36.70
11848;DHT22;5983;49.966;8.052;2024-03-02T12:06:58;34.80;35.20
11848;DHT22;5983;49.966;8.052;2024-03-02T12:09:28;34.90;34.90
11848;DHT22;5983;49.966;8.052;2024-03-02T12:12:03;35.30;34.70
11848;DHT22;5983;49.966;8.052;2024-03-02T12:14:31;35.40;33.20
11848;DHT22;5983;49.966;8.052;2024-03-02T12:16:58;35.30;32.80
11848;DHT22;5983;49.966;8.052;2024-03-02T12:19:26;35.20;32.50
11848;DHT22;5983;49.966;8.052;2024-03-02T12:21:55;35.10;32.30
11848;DHT22;5983;49.966;8.052;2024-03-02T12:24:22;35.40;31.70
11848;DHT22;5983;49.966;8.052;2024-03-02T12:26:50;35.70;31.20
11848;DHT22;5983;49.966;8.052;2024-03-02T12:29:21;35.90;30.40
11848;DHT22;5983;49.966;8.052;2024-03-02T12:31:49;35.70;30.70
11848;DHT22;5983;49.966;8.052;2024-03-02T12:34:17;35.20;30.30
11848;DHT22;5983;49.966;8.052;2024-03-02T12:36:45;34.30;30.50
11848;DHT22;5983;49.966;8.052;2024-03-02T12:39:15;32.90;31.50
11848;DHT22;5983;49.966;8.052;2024-03-02T12:41:42;31.60;32.50
11848;DHT22;5983;49.966;8.052;2024-03-02T12:44:09;31.10;33.50
11848;DHT22;5983;49.966;8.052;2024-03-02T12:46:37;31.00;34.10
11848;DHT22;5983;49.966;8.052;2024-03-02T12:49:07;31.80;33.80
11848;DHT22;5983;49.966;8.052;2024-03-02T12:51:35;32.80;32.50
11848;DHT22;5983;49.966;8.052;2024-03-02T12:54:02;33.20;31.70
11848;DHT22;5983;49.966;8.052;2024-03-02T12:56:30;33.30;31.70
11848;DHT22;5983;49.966;8.052;2024-03-02T12:58:58;34.10;31.20
11848;DHT22;5983;49.966;8.052;2024-03-02T13:01:25;35.10;30.00
11848;DHT22;5983;49.966;8.052;2024-03-02T13:03:54;35.70;29.40
11848;DHT22;5983;49.966;8.052;2024-03-02T13:06:22;36.10;29.10
11848;DHT22;5983;49.966;8.052;2024-03-02T13:08:49;36.40;28.80
11848;DHT22;5983;49.966;8.052;2024-03-02T13:11:16;36.80;28.50
11848;DHT22;5983;49.966;8.052;2024-03-02T13:13:43;37.20;28.20
11848;DHT22;5983;49.966;8.052;2024-03-02T13:16:11;37.30;27.90
11848;DHT22;5983;49.966;8.052;2024-03-02T13:18:39;37.50;27.70
11848;DHT22;5983;49.966;8.052;2024-03-02T13:21:08;37.10;27.70
11848;DHT22;5983;49.966;8.052;2024-03-02T13:23:35;36.80;28.00
11848;DHT22;5983;49.966;8.052;2024-03-02T13:26:02;36.70;27.60
11848;DHT22;5983;49.966;8.052;2024-03-02T13:28:29;36.80;27.60
11848;DHT22;5983;49.966;8.052;2024-03-02T13:30:56;36.60;26.90
11848;DHT22;5983;49.966;8.052;2024-03-02T13:33:23;36.20;27.50
11848;DHT22;5983;49.966;8.052;2024-03-02T13:35:50;35.70;27.80
11848;DHT22;5983;49.966;8.052;2024-03-02T13:38:19;35.40;27.90
11848;DHT22;5983;49.966;8.052;2024-03-02T13:40:47;35.10;28.00
11848;DHT22;5983;49.966;8.052;2024-03-02T13:43:17;34.60;28.30
11848;DHT22;5983;49.966;8.052;2024-03-02T13:45:44;34.40;28.80
11848;DHT22;5983;49.966;8.052;2024-03-02T13:48:11;34.50;28.80
11848;DHT22;5983;49.966;8.052;2024-03-02T13:50:39;34.30;29.10
11848;DHT22;5983;49.966;8.052;2024-03-02T13:53:07;34.10;29.00
11848;DHT22;5983;49.966;8.052;2024-03-02T13:55:36;33.60;29.10
11848;DHT22;5983;49.966;8.052;2024-03-02T13:58:05;32.40;29.30
11848;DHT22;5983;49.966;8.052;2024-03-02T14:00:32;31.60;30.00
11848;DHT22;5983;49.966;8.052;2024-03-02T14:02:59;31.30;30.60
11848;DHT22;5983;49.966;8.052;2024-03-02T14:05:26;30.70;31.10
11848;DHT22;5983;49.966;8.052;2024-03-02T14:07:53;30.10;32.20
11848;DHT22;5983;49.966;8.052;2024-03-02T14:10:20;29.50;32.90
11848;DHT22;5983;49.966;8.052;2024-03-02T14:12:49;29.10;33.60
11848;DHT22;5983;49.966;8.052;2024-03-02T14:15:16;28.40;33.80
11848;DHT22;5983;49.966;8.052;2024-03-02T14:17:43;27.30;34.50
11848;DHT22;5983;49.966;8.052;2024-03-02T14:20:10;26.20;35.40
11848;DHT22;5983;49.966;8.052;2024-03-02T14:22:38;25.70;35.90
11848;DHT22;5983;49.966;8.052;2024-03-02T14:25:06;25.40;36.50
11848;DHT22;5983;49.966;8.052;2024-03-02T14:27:33;25.50;36.60
11848;DHT22;5983;49.966;8.052;2024-03-02T14:30:02;26.10;36.40
11848;DHT22;5983;49.966;8.052;2024-03-02T14:32:30;26.60;35.90
11848;DHT22;5983;49.966;8.052;2024-03-02T14:34:57;26.50;35.50
11848;DHT22;5983;49.966;8.052;2024-03-02T14:37:24;25.40;36.30
11848;DHT22;5983;49.966;8.052;2024-03-02T14:39:51;24.80;37.60
11848;DHT22;5983;49.966;8.052;2024-03-02T14:42:17;24.50;38.10
11848;DHT22;5983;49.966;8.052;2024-03-02T14:44:44;24.50;38.00
11848;DHT22;5983;49.966;8.052;2024-03-02T14:47:12;24.20;37.80
11848;DHT22;5983;49.966;8.052;2024-03-02T14:49:39;24.00;38.50
11848;DHT22;5983;49.966;8.052;2024-03-02T14:52:07;23.30;39.60
11848;DHT22;5983;49.966;8.052;2024-03-02T14:54:34;21.90;41.00
11848;DHT22;5983;49.966;8.052;2024-03-02T14:57:01;20.80;43.10
11848;DHT22;5983;49.966;8.052;2024-03-02T14:59:29;20.00;44.90
11848;DHT22;5983;49.966;8.052;2024-03-02T15:01:56;19.40;46.70
11848;DHT22;5983;49.966;8.052;2024-03-02T15:04:24;19.00;46.80
11848;DHT22;5983;49.966;8.052;2024-03-02T15:06:52;18.60;46.80
11848;DHT22;5983;49.966;8.052;2024-03-02T15:09:19;18.20;47.60
11848;DHT22;5983;49.966;8.052;2024-03-02T15:11:45;17.70;48.70
11848;DHT22;5983;49.966;8.052;2024-03-02T15:14:12;17.40;49.80
11848;DHT22;5983;49.966;8.052;2024-03-02T15:16:39;17.20;50.60
11848;DHT22;5983;49.966;8.052;2024-03-02T15:19:07;17.00;50.70
11848;DHT22;5983;49.966;8.052;2024-03-02T15:21:35;16.80;51.20
11848;DHT22;5983;49.966;8.052;2024-03-02T15:27:24;16.50;52.40
11848;DHT22;5983;49.966;8.052;2024-03-02T15:29:52;16.20;52.70
11848;DHT22;5983;49.966;8.052;2024-03-02T15:32:20;16.00;53.10
11848;DHT22;5983;49.966;8.052;2024-03-02T15:34:47;15.90;54.20
11848;DHT22;5983;49.966;8.052;2024-03-02T15:37:15;15.70;56.40
11848;DHT22;5983;49.966;8.052;2024-03-02T15:39:42;15.70;57.80
11848;DHT22;5983;49.966;8.052;2024-03-02T15:42:12;15.60;59.30
11848;DHT22;5983;49.966;8.052;2024-03-02T15:44:39;15.50;60.50
11848;DHT22;5983;49.966;8.052;2024-03-02T15:47:06;15.30;61.20
11848;DHT22;5983;49.966;8.052;2024-03-02T15:49:33;15.30;62.20
11848;DHT22;5983;49.966;8.052;2024-03-02T15:52:00;15.20;62.80
11848;DHT22;5983;49.966;8.052;2024-03-02T15:54:29;15.20;63.50
11848;DHT22;5983;49.966;8.052;2024-03-02T15:56:56;15.10;63.80
11848;DHT22;5983;49.966;8.052;2024-03-02T15:59:23;15.00;65.00
11848;DHT22;5983;49.966;8.052;2024-03-02T16:01:50;14.80;66.00
11848;DHT22;5983;49.966;8.052;2024-03-02T16:04:16;14.70;67.50
11848;DHT22;5983;49.966;8.052;2024-03-02T16:06:43;14.60;69.30
11848;DHT22;5983;49.966;8.052;2024-03-02T16:09:10;14.50;70.50